Flugplatz Grefrath-Niershorst

Für EDLF sind keine METAR/TAF Berichte vorhanden.
Es werden die Flugwettermeldungen vom Flugplatz Mönchengladbach in 15 km Entfernung angezeigt.

Bericht für EDLN

vom 07.08. um 17:50 UTC

Wind 2 kt aus 50°

Sichtweite 10 km oder mehr

gute Sicht, keine Wolken < 5000 ft, keine CB, keine Wettererscheinungen (CAVOK)

Temperatur 33.0°C

Taupunkt 13.0°C

Luftfeuchtigkeit 30%

Luftdruck 1017 hPa

EDLN 071750Z 05002KT CAVOK 33/13 Q1017

Prognose für EDLN

vom 07.08. um 17:00 UTC

Zwischen 18:00 UTC und 03:00 UTC

variable Windrichtung mit 3 kt

Sichtweite 10 km oder mehr

keine signifikanten Wettererscheinungen

keine Wolken

TAF EDLN 071700Z 0718/0803 VRB03KT CAVOK
Impressum